Time;durP1;ratioP1;P1;durP2;ratioP2;P2;SDS_P1;SDS_P2;PMS_P1;PMS_P2;Temp;Humidity;BMP_temperature;BMP_pressure;BME280_temperature;BME280_humidity;BME280_pressure;Samples;Min_cycle;Max_cycle;Signal;HPM_P1;HPM_P2
2023/08/14 00:00:32;;;;;;;11.30;4.78;;;;;;;;;;4933012;28;20061;-93
2023/08/14 00:02:58;;;;;;;11.00;4.70;;;;;;;;;;4937171;28;20035;-93
2023/08/14 00:05:25;;;;;;;11.80;4.63;;;;;;;;;;4946220;28;20366;-94
2023/08/14 00:07:52;;;;;;;10.63;4.70;;;;;;;;;;4952963;28;20067;-93
2023/08/14 00:10:19;;;;;;;8.23;4.10;;;;;;;;;;4937548;28;20047;-94
2023/08/14 00:12:46;;;;;;;10.48;4.45;;;;;;;;;;4952667;28;20027;-94
2023/08/14 00:15:14;;;;;;;8.20;4.70;;;;;;;;;;4953723;28;20042;-92
2023/08/14 00:17:40;;;;;;;11.30;5.78;;;;;;;;;;4944115;28;20030;-93
2023/08/14 00:20:07;;;;;;;7.50;4.60;;;;;;;;;;4945576;28;20034;-92
2023/08/14 00:22:33;;;;;;;12.00;5.15;;;;;;;;;;4946226;28;20030;-92
2023/08/14 00:24:59;;;;;;;9.13;4.93;;;;;;;;;;4944507;28;20423;-91
2023/08/14 00:27:25;;;;;;;9.98;5.38;;;;;;;;;;4962257;28;20030;-91
2023/08/14 00:29:51;;;;;;;15.55;5.85;;;;;;;;;;4959438;28;20174;-91
2023/08/14 00:32:18;;;;;;;7.85;4.82;;;;;;;;;;4944481;28;20027;-92
2023/08/14 00:34:44;;;;;;;13.43;4.75;;;;;;;;;;4941483;28;20043;-93
2023/08/14 00:37:10;;;;;;;9.25;5.07;;;;;;;;;;4940583;28;20034;-92
2023/08/14 00:39:36;;;;;;;7.15;4.65;;;;;;;;;;4941701;28;20041;-93
2023/08/14 00:42:02;;;;;;;11.07;4.32;;;;;;;;;;4943231;28;20443;-93
2023/08/14 00:44:42;;;;;;;11.18;4.78;;;;;;;;;;4938142;28;20150;-92
2023/08/14 00:47:09;;;;;;;15.07;4.50;;;;;;;;;;4935948;28;20392;-92
2023/08/14 00:49:35;;;;;;;10.93;4.85;;;;;;;;;;4922499;29;20491;-91
2023/08/14 00:52:01;;;;;;;7.47;4.65;;;;;;;;;;4921813;28;20392;-91
2023/08/14 00:54:27;;;;;;;7.35;4.80;;;;;;;;;;4937492;29;20678;-92
2023/08/14 00:56:53;;;;;;;13.77;5.18;;;;;;;;;;4937799;29;20055;-93
2023/08/14 00:59:21;;;;;;;8.95;5.35;;;;;;;;;;4943125;29;20074;-93
2023/08/14 01:01:47;;;;;;;12.75;5.47;;;;;;;;;;4919192;29;20051;-92
2023/08/14 01:04:13;;;;;;;10.35;5.00;;;;;;;;;;4940238;28;20077;-92
2023/08/14 01:06:39;;;;;;;7.75;4.82;;;;;;;;;;4922424;29;20070;-92
2023/08/14 01:09:05;;;;;;;9.10;5.07;;;;;;;;;;4924002;29;20036;-92
2023/08/14 01:11:39;;;;;;;11.65;5.82;;;;;;;;;;4923330;28;20130;-92
2023/08/14 01:14:29;;;;;;;8.55;4.97;;;;;;;;;;4956424;28;20041;-92
2023/08/14 01:16:57;;;;;;;9.15;5.10;;;;;;;;;;4949782;28;20039;-92
2023/08/14 01:19:29;;;;;;;8.80;4.70;;;;;;;;;;4939031;29;20043;-93
2023/08/14 01:22:06;;;;;;;6.78;4.80;;;;;;;;;;4938799;28;20035;-92
2023/08/14 01:24:50;;;;;;;9.60;5.68;;;;;;;;;;4953920;28;20035;-92
2023/08/14 01:27:17;;;;;;;15.32;4.95;;;;;;;;;;4952793;28;20036;-92
2023/08/14 01:29:45;;;;;;;9.20;5.28;;;;;;;;;;4938173;29;20371;-94
2023/08/14 01:32:11;;;;;;;6.78;4.38;;;;;;;;;;4957327;28;20027;-94
2023/08/14 01:34:37;;;;;;;8.68;4.97;;;;;;;;;;4931313;28;20134;-94
2023/08/14 01:37:17;;;;;;;7.40;4.75;;;;;;;;;;4939420;28;20039;-94
2023/08/14 01:40:16;;;;;;;9.27;4.93;;;;;;;;;;4952867;28;20725;-93
2023/08/14 01:42:45;;;;;;;7.75;5.15;;;;;;;;;;4908416;28;20094;-95
2023/08/14 01:45:14;;;;;;;10.40;4.85;;;;;;;;;;4966339;28;20062;-94
2023/08/14 01:47:41;;;;;;;8.45;5.03;;;;;;;;;;4968404;28;20065;-92
2023/08/14 01:50:08;;;;;;;10.13;4.45;;;;;;;;;;4955666;28;20037;-93
2023/08/14 01:52:34;;;;;;;9.48;4.93;;;;;;;;;;4955665;28;20027;-93
2023/08/14 01:55:02;;;;;;;11.57;4.72;;;;;;;;;;4937443;28;20037;-94
2023/08/14 01:57:29;;;;;;;10.48;5.07;;;;;;;;;;4941337;28;20030;-93
2023/08/14 01:59:56;;;;;;;9.45;4.70;;;;;;;;;;4971370;28;20035;-94
2023/08/14 02:02:22;;;;;;;9.25;4.85;;;;;;;;;;4940590;28;20791;-95
2023/08/14 02:04:50;;;;;;;8.77;5.22;;;;;;;;;;4937077;28;20035;-93
2023/08/14 02:07:16;;;;;;;6.85;4.75;;;;;;;;;;4938289;28;20071;-94
2023/08/14 02:09:43;;;;;;;9.00;4.55;;;;;;;;;;4941197;28;20031;-92
2023/08/14 02:12:09;;;;;;;13.18;5.15;;;;;;;;;;4955997;28;20034;-93
2023/08/14 02:14:38;;;;;;;11.43;5.40;;;;;;;;;;4940918;28;20628;-94
2023/08/14 02:17:04;;;;;;;9.73;5.80;;;;;;;;;;4937782;28;20038;-95
2023/08/14 02:19:30;;;;;;;8.43;4.70;;;;;;;;;;4941817;28;20082;-93
2023/08/14 02:21:56;;;;;;;9.15;4.88;;;;;;;;;;4939709;28;20034;-95
2023/08/14 02:24:22;;;;;;;8.75;5.43;;;;;;;;;;4956454;28;20042;-92
2023/08/14 02:26:48;;;;;;;9.35;5.65;;;;;;;;;;4945735;28;20514;-94
2023/08/14 02:29:14;;;;;;;13.98;5.72;;;;;;;;;;4949008;28;20030;-92
2023/08/14 02:31:40;;;;;;;14.55;5.65;;;;;;;;;;4937893;28;20035;-93
2023/08/14 02:34:06;;;;;;;9.27;5.82;;;;;;;;;;4938467;28;20038;-93
2023/08/14 02:36:32;;;;;;;10.57;4.47;;;;;;;;;;4939752;28;20065;-93
2023/08/14 02:38:58;;;;;;;7.95;4.85;;;;;;;;;;4936593;28;20031;-93
2023/08/14 02:41:25;;;;;;;10.98;4.72;;;;;;;;;;4941176;28;20039;-92
2023/08/14 02:44:05;;;;;;;10.85;4.47;;;;;;;;;;4939579;28;20150;-93
2023/08/14 02:46:31;;;;;;;7.95;4.75;;;;;;;;;;4969531;28;20077;-93
2023/08/14 02:48:57;;;;;;;8.50;4.65;;;;;;;;;;4934381;28;20054;-92
2023/08/14 02:51:23;;;;;;;9.93;4.50;;;;;;;;;;4949056;28;20037;-93
2023/08/14 02:53:49;;;;;;;8.23;4.47;;;;;;;;;;4948538;28;20034;-91
2023/08/14 02:56:15;;;;;;;8.05;4.90;;;;;;;;;;4936119;28;20030;-94
2023/08/14 02:58:41;;;;;;;7.22;4.85;;;;;;;;;;4938081;28;20106;-94
2023/08/14 03:01:07;;;;;;;13.05;5.00;;;;;;;;;;4930237;28;20049;-93
2023/08/14 03:03:33;;;;;;;6.90;4.60;;;;;;;;;;4937447;28;20625;-94
2023/08/14 03:05:59;;;;;;;8.85;5.20;;;;;;;;;;4948791;28;20053;-94
2023/08/14 03:08:26;;;;;;;9.00;4.95;;;;;;;;;;4947936;28;20026;-95
2023/08/14 03:10:53;;;;;;;10.25;5.25;;;;;;;;;;4937170;28;20042;-94
2023/08/14 03:13:19;;;;;;;11.50;5.80;;;;;;;;;;4936437;28;20050;-94
2023/08/14 03:15:51;;;;;;;11.90;5.85;;;;;;;;;;4948172;28;20442;-93
2023/08/14 03:18:19;;;;;;;10.90;5.60;;;;;;;;;;4934315;28;20510;-92
2023/08/14 03:20:45;;;;;;;15.13;5.50;;;;;;;;;;4941937;28;20049;-92
2023/08/14 03:23:13;;;;;;;10.02;5.53;;;;;;;;;;4940898;28;20042;-92
2023/08/14 03:25:39;;;;;;;10.43;5.80;;;;;;;;;;4971103;28;20041;-91
2023/08/14 03:28:05;;;;;;;11.98;6.13;;;;;;;;;;4941971;28;20026;-92
2023/08/14 03:30:31;;;;;;;14.98;6.68;;;;;;;;;;4966258;28;20113;-92
2023/08/14 03:32:57;;;;;;;12.95;6.50;;;;;;;;;;4941835;28;20038;-92
2023/08/14 03:35:23;;;;;;;11.07;6.57;;;;;;;;;;4939950;28;20039;-92
2023/08/14 03:37:49;;;;;;;12.48;6.65;;;;;;;;;;4955848;28;20101;-93
2023/08/14 03:40:16;;;;;;;20.20;7.63;;;;;;;;;;4952528;28;20121;-94
2023/08/14 03:42:42;;;;;;;12.48;6.22;;;;;;;;;;4945260;28;20112;-94
2023/08/14 03:45:08;;;;;;;13.50;6.32;;;;;;;;;;4957504;28;20039;-93
2023/08/14 03:47:35;;;;;;;14.65;6.93;;;;;;;;;;4940151;28;20054;-94
2023/08/14 03:50:01;;;;;;;13.27;6.38;;;;;;;;;;4943541;28;20027;-92
2023/08/14 03:52:30;;;;;;;15.80;6.68;;;;;;;;;;4944756;28;20045;-92
2023/08/14 03:54:56;;;;;;;17.52;7.35;;;;;;;;;;4935325;28;20043;-91
2023/08/14 03:57:23;;;;;;;13.60;6.10;;;;;;;;;;4954349;28;20038;-92
2023/08/14 03:59:49;;;;;;;10.65;6.25;;;;;;;;;;4946456;28;20059;-93
2023/08/14 04:02:15;;;;;;;14.65;6.72;;;;;;;;;;4942304;28;20068;-92
2023/08/14 04:04:41;;;;;;;17.88;6.95;;;;;;;;;;4938742;28;20432;-93
2023/08/14 04:07:10;;;;;;;14.07;6.82;;;;;;;;;;4940860;28;20041;-92
2023/08/14 04:09:37;;;;;;;14.68;7.22;;;;;;;;;;4939417;28;20076;-93
2023/08/14 04:12:03;;;;;;;17.88;7.43;;;;;;;;;;4953975;28;20065;-92
2023/08/14 04:14:32;;;;;;;16.52;7.80;;;;;;;;;;4948054;28;20659;-94
2023/08/14 04:17:00;;;;;;;15.77;7.80;;;;;;;;;;4954450;28;20109;-96
2023/08/14 04:19:26;;;;;;;14.27;7.55;;;;;;;;;;4951388;28;20057;-94
2023/08/14 04:21:58;;;;;;;16.85;8.70;;;;;;;;;;4934483;28;20042;-93
2023/08/14 04:24:25;;;;;;;16.02;9.13;;;;;;;;;;4938119;28;20031;-94
2023/08/14 04:26:51;;;;;;;22.13;8.65;;;;;;;;;;4938609;28;20027;-94
2023/08/14 04:29:17;;;;;;;18.38;9.52;;;;;;;;;;4937500;28;20082;-95
2023/08/14 04:31:49;;;;;;;20.10;9.68;;;;;;;;;;4936901;28;20019;-95
2023/08/14 04:34:19;;;;;;;17.42;9.35;;;;;;;;;;4951840;28;20034;-93
2023/08/14 04:36:45;;;;;;;22.48;9.65;;;;;;;;;;4936674;28;20059;-94
2023/08/14 04:39:11;;;;;;;18.70;10.45;;;;;;;;;;4942452;28;20030;-92
2023/08/14 04:41:37;;;;;;;22.60;10.50;;;;;;;;;;4951768;28;20502;-93
2023/08/14 04:44:03;;;;;;;24.70;9.90;;;;;;;;;;4939352;28;21023;-93
2023/08/14 04:46:37;;;;;;;18.58;9.40;;;;;;;;;;4938343;28;20050;-92
2023/08/14 04:49:06;;;;;;;17.13;9.38;;;;;;;;;;4951596;28;20321;-94
2023/08/14 04:51:32;;;;;;;20.70;10.05;;;;;;;;;;4967057;28;20030;-92
2023/08/14 04:53:59;;;;;;;25.73;10.15;;;;;;;;;;4955765;28;20035;-94
2023/08/14 04:56:26;;;;;;;19.35;9.70;;;;;;;;;;4938019;28;20060;-91
2023/08/14 04:58:52;;;;;;;22.35;10.65;;;;;;;;;;4950390;28;20098;-91
2023/08/14 05:01:18;;;;;;;24.05;11.30;;;;;;;;;;4936413;28;20042;-90
2023/08/14 05:03:45;;;;;;;20.23;10.48;;;;;;;;;;4953669;28;20085;-90
2023/08/14 05:06:16;;;;;;;16.52;9.93;;;;;;;;;;4953248;28;21058;-91
2023/08/14 05:08:42;;;;;;;18.15;10.25;;;;;;;;;;4941507;28;20501;-90
2023/08/14 05:11:08;;;;;;;14.57;9.35;;;;;;;;;;4939332;28;20042;-91
2023/08/14 05:13:34;;;;;;;18.05;9.30;;;;;;;;;;4939703;28;20265;-91
2023/08/14 05:16:00;;;;;;;19.77;9.23;;;;;;;;;;4941013;28;20425;-91
2023/08/14 05:18:27;;;;;;;15.40;8.80;;;;;;;;;;4939172;28;20055;-92
2023/08/14 05:20:53;;;;;;;22.65;9.40;;;;;;;;;;4937279;28;21245;-92
2023/08/14 05:23:20;;;;;;;14.18;8.07;;;;;;;;;;4945624;28;20107;-91
2023/08/14 05:25:47;;;;;;;14.90;8.23;;;;;;;;;;4953444;28;20069;-90
2023/08/14 05:28:13;;;;;;;23.63;9.13;;;;;;;;;;4951141;28;20046;-89
2023/08/14 05:30:43;;;;;;;11.00;7.82;;;;;;;;;;4952821;28;20026;-91
2023/08/14 05:33:13;;;;;;;19.75;8.20;;;;;;;;;;4937624;28;20026;-87
2023/08/14 05:35:39;;;;;;;15.65;8.02;;;;;;;;;;4954567;28;20038;-89
2023/08/14 05:38:05;;;;;;;16.63;7.88;;;;;;;;;;4935860;28;20364;-88
2023/08/14 05:40:34;;;;;;;19.58;7.43;;;;;;;;;;4951039;28;20035;-88
2023/08/14 05:43:04;;;;;;;16.15;8.77;;;;;;;;;;4967966;28;20086;-88
2023/08/14 05:45:30;;;;;;;16.80;7.50;;;;;;;;;;4965454;28;20039;-88
2023/08/14 05:47:56;;;;;;;13.88;7.30;;;;;;;;;;4938617;28;20034;-88
2023/08/14 05:50:34;;;;;;;13.35;6.82;;;;;;;;;;4957808;28;20068;-90
2023/08/14 05:53:04;;;;;;;10.45;6.13;;;;;;;;;;4936689;28;20035;-89
2023/08/14 05:55:35;;;;;;;11.50;7.28;;;;;;;;;;4935128;28;20030;-89
2023/08/14 05:58:02;;;;;;;11.90;6.93;;;;;;;;;;4948356;28;20031;-90
2023/08/14 06:00:28;;;;;;;15.70;7.20;;;;;;;;;;4936791;28;20542;-89
2023/08/14 06:02:55;;;;;;;11.07;6.60;;;;;;;;;;4938385;28;20212;-90
2023/08/14 06:05:21;;;;;;;15.02;7.30;;;;;;;;;;4947050;28;20062;-89
2023/08/14 06:07:48;;;;;;;12.23;7.07;;;;;;;;;;4946147;28;20582;-90
2023/08/14 06:10:14;;;;;;;9.90;6.50;;;;;;;;;;4937853;28;20439;-90
2023/08/14 06:12:41;;;;;;;10.75;5.80;;;;;;;;;;4944510;28;20064;-89
2023/08/14 06:15:07;;;;;;;13.88;6.18;;;;;;;;;;4934355;28;20109;-90
2023/08/14 06:17:33;;;;;;;19.13;6.07;;;;;;;;;;4936636;28;20109;-89
2023/08/14 06:20:06;;;;;;;15.50;6.15;;;;;;;;;;4950658;28;20669;-87
2023/08/14 06:22:48;;;;;;;;;;;;;;;;;;;;;
2023/08/14 06:25:29;;;;;;;13.48;6.75;;;;;;;;;;4951224;28;20136;-89
2023/08/14 06:28:25;;;;;;;12.65;6.88;;;;;;;;;;4934332;28;20138;-89
2023/08/14 06:31:15;;;;;;;15.15;6.30;;;;;;;;;;4943329;28;20038;-89
2023/08/14 06:33:53;;;;;;;13.27;6.55;;;;;;;;;;4944007;28;20039;-89
2023/08/14 06:39:13;;;;;;;11.77;5.63;;;;;;;;;;4919210;28;20035;-88
2023/08/14 06:41:39;;;;;;;17.30;5.55;;;;;;;;;;4923891;28;20726;-88
2023/08/14 06:44:11;;;;;;;10.93;5.55;;;;;;;;;;4922397;28;20047;-91
2023/08/14 06:46:51;;;;;;;11.32;5.60;;;;;;;;;;4922902;28;20072;-90
2023/08/14 06:49:17;;;;;;;10.23;5.22;;;;;;;;;;4895630;29;20043;-89
2023/08/14 06:51:43;;;;;;;12.82;6.20;;;;;;;;;;4897977;29;20088;-89
2023/08/14 06:54:09;;;;;;;14.02;5.10;;;;;;;;;;4889097;29;20043;-90
2023/08/14 06:56:35;;;;;;;18.17;6.10;;;;;;;;;;4901602;29;20143;-90
2023/08/14 06:59:05;;;;;;;7.35;4.72;;;;;;;;;;4897722;28;20062;-90
2023/08/14 07:01:31;;;;;;;12.93;5.13;;;;;;;;;;4924193;28;20039;-89
2023/08/14 07:03:57;;;;;;;8.40;4.75;;;;;;;;;;4906632;28;20099;-90
2023/08/14 07:06:23;;;;;;;11.25;5.10;;;;;;;;;;4907193;28;20055;-90
2023/08/14 07:08:49;;;;;;;12.95;5.30;;;;;;;;;;4923679;28;20058;-89
2023/08/14 07:11:15;;;;;;;10.52;4.72;;;;;;;;;;4907971;28;20090;-91
2023/08/14 07:13:41;;;;;;;12.73;5.25;;;;;;;;;;4920569;28;20027;-89
2023/08/14 07:16:07;;;;;;;11.15;4.90;;;;;;;;;;4910811;29;20037;-92
2023/08/14 07:18:33;;;;;;;8.02;4.60;;;;;;;;;;4948552;28;20546;-90
2023/08/14 07:20:59;;;;;;;8.73;4.60;;;;;;;;;;4921381;28;20051;-88
2023/08/14 07:23:26;;;;;;;8.48;4.30;;;;;;;;;;4922042;28;20047;-88
2023/08/14 07:25:52;;;;;;;12.55;4.10;;;;;;;;;;4939544;28;20035;-91
2023/08/14 07:28:18;;;;;;;16.67;6.25;;;;;;;;;;4920353;28;20042;-89
2023/08/14 07:30:44;;;;;;;12.45;4.93;;;;;;;;;;4937911;28;20042;-89
2023/08/14 07:33:13;;;;;;;6.57;3.67;;;;;;;;;;4937613;28;20050;-87
2023/08/14 07:35:40;;;;;;;9.18;3.90;;;;;;;;;;4935580;28;20523;-89
2023/08/14 07:38:06;;;;;;;9.80;3.95;;;;;;;;;;4927858;29;20031;-88
2023/08/14 07:40:32;;;;;;;10.50;3.90;;;;;;;;;;4933637;29;20047;-90
2023/08/14 07:42:59;;;;;;;8.95;3.97;;;;;;;;;;4914269;29;20054;-89
2023/08/14 07:45:28;;;;;;;9.88;3.40;;;;;;;;;;4919214;28;20065;-88
2023/08/14 07:47:54;;;;;;;7.90;3.28;;;;;;;;;;4949019;28;20118;-89
2023/08/14 07:50:20;;;;;;;17.67;4.05;;;;;;;;;;4928179;29;20109;-90
2023/08/14 07:52:47;;;;;;;10.45;4.32;;;;;;;;;;4908860;29;20436;-89
2023/08/14 07:55:19;;;;;;;10.43;3.53;;;;;;;;;;4929659;28;20412;-88
2023/08/14 07:57:46;;;;;;;8.38;3.28;;;;;;;;;;4917747;29;20035;-89
2023/08/14 08:00:16;;;;;;;8.38;2.92;;;;;;;;;;4919288;29;20543;-88
2023/08/14 08:02:42;;;;;;;9.00;3.50;;;;;;;;;;4931193;28;20554;-89
2023/08/14 08:05:09;;;;;;;11.20;3.80;;;;;;;;;;4932496;28;20028;-88
2023/08/14 08:07:35;;;;;;;7.65;3.53;;;;;;;;;;4914669;29;20127;-89
2023/08/14 08:10:06;;;;;;;14.32;5.35;;;;;;;;;;4919418;29;20101;-89
2023/08/14 08:12:32;;;;;;;8.30;3.90;;;;;;;;;;4916803;29;20055;-89
2023/08/14 08:14:59;;;;;;;6.75;2.83;;;;;;;;;;4915590;28;20039;-89
2023/08/14 08:17:25;;;;;;;9.63;3.78;;;;;;;;;;4927697;28;20075;-88
2023/08/14 08:19:51;;;;;;;6.95;3.50;;;;;;;;;;4917814;28;20038;-88
2023/08/14 08:22:20;;;;;;;7.40;3.40;;;;;;;;;;4915775;29;20043;-88
2023/08/14 08:24:47;;;;;;;8.50;3.35;;;;;;;;;;4914305;28;20752;-89
2023/08/14 08:27:14;;;;;;;12.32;3.75;;;;;;;;;;4919907;29;20046;-90
2023/08/14 08:29:40;;;;;;;7.30;3.20;;;;;;;;;;4943425;29;20062;-89
2023/08/14 08:32:09;;;;;;;9.43;3.58;;;;;;;;;;4929480;28;20127;-89
2023/08/14 08:34:36;;;;;;;7.60;3.60;;;;;;;;;;4927845;29;20036;-91
2023/08/14 08:37:02;;;;;;;7.82;3.13;;;;;;;;;;4949876;29;20027;-90
2023/08/14 08:39:28;;;;;;;7.18;2.90;;;;;;;;;;4927889;29;20032;-91
2023/08/14 08:41:58;;;;;;;8.38;3.05;;;;;;;;;;4939537;29;20138;-91
2023/08/14 08:44:24;;;;;;;6.68;2.20;;;;;;;;;;4930401;28;20120;-90
2023/08/14 08:47:04;;;;;;;9.23;2.90;;;;;;;;;;4961686;28;20054;-90
2023/08/14 08:49:30;;;;;;;5.97;2.45;;;;;;;;;;4978156;28;20096;-90
2023/08/14 08:51:58;;;;;;;15.07;3.55;;;;;;;;;;4973515;28;20042;-90
2023/08/14 08:54:26;;;;;;;3.75;2.30;;;;;;;;;;4964314;28;20498;-89
2023/08/14 08:56:59;;;;;;;8.90;2.58;;;;;;;;;;4951503;28;20074;-89
2023/08/14 08:59:25;;;;;;;9.02;2.80;;;;;;;;;;4954470;28;20034;-90
2023/08/14 09:01:52;;;;;;;4.53;2.35;;;;;;;;;;4950442;28;20031;-89
2023/08/14 09:04:18;;;;;;;8.63;2.65;;;;;;;;;;4950285;28;20387;-90
2023/08/14 09:07:04;;;;;;;5.75;2.70;;;;;;;;;;4956867;28;20081;-91
2023/08/14 09:09:30;;;;;;;;;;;;;;;;;;4955279;28;20041;-90
2023/08/14 09:11:56;;;;;;;6.88;2.33;;;;;;;;;;4966622;28;20377;-89
2023/08/14 09:14:29;;;;;;;4.28;1.95;;;;;;;;;;4957631;28;20026;-91
2023/08/14 09:16:57;;;;;;;3.30;2.22;;;;;;;;;;4945489;28;20066;-90
2023/08/14 09:19:23;;;;;;;7.50;1.80;;;;;;;;;;4952586;28;20023;-89
2023/08/14 09:21:50;;;;;;;4.95;2.40;;;;;;;;;;4952196;28;20030;-89
2023/08/14 09:24:16;;;;;;;3.22;1.25;;;;;;;;;;4940037;28;20105;-91
2023/08/14 09:26:46;;;;;;;10.55;2.15;;;;;;;;;;4955070;28;20114;-90
2023/08/14 09:29:31;;;;;;;10.18;2.05;;;;;;;;;;4964281;28;20027;-91
2023/08/14 09:32:10;;;;;;;6.63;2.15;;;;;;;;;;4974438;28;20078;-90
2023/08/14 09:34:38;;;;;;;4.72;1.70;;;;;;;;;;4974662;28;20094;-91
2023/08/14 09:37:04;;;;;;;10.20;2.10;;;;;;;;;;4958464;28;20533;-91
2023/08/14 09:39:52;;;;;;;3.08;2.22;;;;;;;;;;4974636;28;20035;-91
2023/08/14 09:42:27;;;;;;;4.35;1.88;;;;;;;;;;4971113;28;20035;-90
2023/08/14 09:48:00;;;;;;;8.90;2.10;;;;;;;;;;4982026;28;20086;-90
2023/08/14 09:50:35;;;;;;;3.88;1.75;;;;;;;;;;4954713;28;20046;-91
2023/08/14 09:53:02;;;;;;;6.47;2.13;;;;;;;;;;4959735;28;20455;-90
2023/08/14 09:55:29;;;;;;;6.95;1.75;;;;;;;;;;4970386;28;20034;-91
2023/08/14 09:57:56;;;;;;;5.85;2.58;;;;;;;;;;4956058;28;20084;-90
2023/08/14 10:00:23;;;;;;;7.15;2.00;;;;;;;;;;4980617;28;20071;-91
2023/08/14 10:02:55;;;;;;;3.20;1.83;;;;;;;;;;4942682;28;20031;-91
2023/08/14 10:05:27;;;;;;;2.83;1.63;;;;;;;;;;4952365;28;20043;-90
2023/08/14 10:07:55;;;;;;;8.55;2.00;;;;;;;;;;4961971;28;20031;-91
2023/08/14 10:10:31;;;;;;;7.15;1.85;;;;;;;;;;4952559;28;20480;-92
2023/08/14 10:16:04;;;;;;;6.78;2.17;;;;;;;;;;4944251;28;20035;-91
2023/08/14 10:18:31;;;;;;;3.47;2.10;;;;;;;;;;4980165;28;20062;-91
2023/08/14 10:21:25;;;;;;;3.08;1.70;;;;;;;;;;4954178;28;20019;-92
2023/08/14 10:23:59;;;;;;;3.50;1.92;;;;;;;;;;4959228;28;20030;-91
2023/08/14 10:26:36;;;;;;;6.47;1.88;;;;;;;;;;4942039;28;20053;-92
2023/08/14 10:29:03;;;;;;;4.85;1.65;;;;;;;;;;4956775;28;20039;-91
2023/08/14 10:31:46;;;;;;;1.98;1.75;;;;;;;;;;4954566;28;20027;-91
2023/08/14 10:34:34;;;;;;;5.38;1.85;;;;;;;;;;4975932;28;20118;-91
2023/08/14 10:37:03;;;;;;;6.00;1.90;;;;;;;;;;4959955;28;20058;-90
2023/08/14 10:39:39;;;;;;;4.55;1.55;;;;;;;;;;4939674;28;20038;-91
2023/08/14 10:42:22;;;;;;;7.18;1.83;;;;;;;;;;4937872;28;20399;-92
2023/08/14 10:44:57;;;;;;;3.72;1.73;;;;;;;;;;4961127;28;20565;-91
2023/08/14 10:47:27;;;;;;;;;;;;;;;;;;4950087;28;20556;-93
2023/08/14 10:50:16;;;;;;;2.58;1.75;;;;;;;;;;4971114;28;19926;-92
2023/08/14 10:53:08;;;;;;;2.13;1.23;;;;;;;;;;4948237;28;20039;-93
2023/08/14 10:55:51;;;;;;;5.07;1.85;;;;;;;;;;4973180;28;20049;-91
2023/08/14 10:58:38;;;;;;;3.13;1.40;;;;;;;;;;4959748;28;20053;-92
2023/08/14 11:01:37;;;;;;;;;;;;;;;;;;;;;
2023/08/14 11:04:07;;;;;;;7.82;1.70;;;;;;;;;;4975562;28;20137;-92
2023/08/14 11:06:52;;;;;;;4.35;2.03;;;;;;;;;;4961844;28;20113;-92
2023/08/14 11:09:20;;;;;;;2.72;1.92;;;;;;;;;;4975575;28;20107;-93
2023/08/14 11:11:49;;;;;;;5.78;1.77;;;;;;;;;;4949299;28;20254;-91
2023/08/14 11:14:15;;;;;;;3.05;1.38;;;;;;;;;;4934543;28;20027;-92
2023/08/14 11:16:47;;;;;;;4.63;1.65;;;;;;;;;;4934764;28;20090;-92
2023/08/14 11:19:22;;;;;;;5.15;1.77;;;;;;;;;;4953158;28;20034;-92
2023/08/14 11:21:51;;;;;;;4.03;1.38;;;;;;;;;;4959795;28;20038;-92
2023/08/14 11:24:21;;;;;;;3.90;1.60;;;;;;;;;;4961455;28;20035;-92
2023/08/14 11:26:48;;;;;;;8.70;1.77;;;;;;;;;;4950535;28;20051;-91
2023/08/14 11:29:24;;;;;;;12.80;2.05;;;;;;;;;;4950868;28;20047;-91
2023/08/14 11:31:57;;;;;;;2.00;1.40;;;;;;;;;;4948050;28;20035;-92
2023/08/14 11:34:23;;;;;;;2.38;1.52;;;;;;;;;;4940685;28;20058;-91
2023/08/14 11:36:57;;;;;;;3.30;1.35;;;;;;;;;;4957863;28;20027;-91
2023/08/14 11:39:23;;;;;;;11.38;2.40;;;;;;;;;;4968653;28;20049;-91
2023/08/14 11:41:51;;;;;;;4.07;1.90;;;;;;;;;;4944604;28;20054;-93
2023/08/14 11:44:17;;;;;;;4.28;1.63;;;;;;;;;;4952903;28;20053;-92
2023/08/14 11:46:43;;;;;;;5.15;1.77;;;;;;;;;;4950983;28;20035;-91
2023/08/14 11:49:12;;;;;;;5.28;1.80;;;;;;;;;;4961374;28;20039;-91
2023/08/14 11:51:40;;;;;;;6.22;1.60;;;;;;;;;;4950181;28;20054;-91
2023/08/14 11:54:08;;;;;;;5.32;1.75;;;;;;;;;;4950109;28;20031;-91
2023/08/14 11:56:37;;;;;;;3.90;2.10;;;;;;;;;;4933826;29;20031;-91
2023/08/14 11:59:03;;;;;;;4.88;1.90;;;;;;;;;;4918515;28;20044;-91
2023/08/14 12:01:34;;;;;;;2.78;1.75;;;;;;;;;;4931478;29;20110;-91
2023/08/14 12:04:01;;;;;;;9.00;2.33;;;;;;;;;;4935244;28;20031;-90
2023/08/14 12:06:28;;;;;;;4.30;1.50;;;;;;;;;;4930970;28;20031;-90
2023/08/14 12:08:54;;;;;;;3.92;1.85;;;;;;;;;;4929437;29;20032;-90
2023/08/14 12:11:20;;;;;;;4.97;1.83;;;;;;;;;;4912418;29;20139;-89
2023/08/14 12:14:12;;;;;;;5.07;2.03;;;;;;;;;;4920579;29;20039;-90
2023/08/14 12:16:39;;;;;;;9.73;1.40;;;;;;;;;;4950744;28;20042;-89
2023/08/14 12:19:20;;;;;;;5.68;1.92;;;;;;;;;;4931913;28;20035;-89
2023/08/14 12:21:55;;;;;;;2.08;1.20;;;;;;;;;;4919664;28;20127;-90
2023/08/14 12:24:22;;;;;;;4.10;1.73;;;;;;;;;;4931377;28;20426;-89
2023/08/14 12:26:49;;;;;;;4.32;2.08;;;;;;;;;;4915649;28;20043;-89
2023/08/14 12:29:17;;;;;;;3.20;1.40;;;;;;;;;;4925156;29;20460;-89
2023/08/14 12:31:44;;;;;;;3.20;2.42;;;;;;;;;;4926640;28;20063;-90
2023/08/14 12:34:10;;;;;;;3.58;1.88;;;;;;;;;;4925491;28;20519;-90
2023/08/14 12:36:36;;;;;;;5.18;1.60;;;;;;;;;;4913946;28;20027;-89
2023/08/14 12:39:05;;;;;;;5.93;1.80;;;;;;;;;;4929745;28;20035;-90
2023/08/14 12:41:31;;;;;;;2.83;2.05;;;;;;;;;;4912698;28;20358;-89
2023/08/14 12:44:00;;;;;;;7.05;2.33;;;;;;;;;;4944346;28;20046;-88
2023/08/14 12:46:29;;;;;;;2.78;1.52;;;;;;;;;;4941490;28;20098;-89
2023/08/14 12:48:55;;;;;;;3.55;1.42;;;;;;;;;;4933551;28;20632;-88
2023/08/14 12:51:21;;;;;;;4.45;1.90;;;;;;;;;;4946933;28;20038;-90
2023/08/14 12:53:51;;;;;;;4.90;2.10;;;;;;;;;;4945685;28;20035;-90
2023/08/14 12:56:17;;;;;;;3.60;1.55;;;;;;;;;;4928568;28;20072;-90
2023/08/14 12:58:43;;;;;;;10.10;2.22;;;;;;;;;;4964309;28;20054;-90
2023/08/14 13:01:10;;;;;;;7.13;1.83;;;;;;;;;;4948003;28;20038;-90
2023/08/14 13:03:53;;;;;;;6.57;2.00;;;;;;;;;;4953684;28;20046;-89
2023/08/14 13:06:22;;;;;;;2.58;1.23;;;;;;;;;;4949398;28;20053;-91
2023/08/14 13:08:48;;;;;;;3.83;1.60;;;;;;;;;;4938716;28;20031;-91
2023/08/14 13:11:15;;;;;;;7.63;1.80;;;;;;;;;;4930506;28;20031;-91
2023/08/14 13:13:41;;;;;;;4.35;1.98;;;;;;;;;;4965037;28;20499;-91
2023/08/14 13:16:07;;;;;;;4.50;1.92;;;;;;;;;;4938907;28;20108;-91
2023/08/14 13:18:46;;;;;;;4.40;1.58;;;;;;;;;;4934673;28;20115;-91
2023/08/14 13:21:12;;;;;;;4.25;1.88;;;;;;;;;;4965207;28;20035;-91
2023/08/14 13:23:38;;;;;;;4.15;1.83;;;;;;;;;;4970156;28;20045;-91
2023/08/14 13:26:05;;;;;;;10.88;2.60;;;;;;;;;;4934804;28;20031;-91
2023/08/14 13:28:35;;;;;;;3.92;1.75;;;;;;;;;;4934796;28;20082;-91
2023/08/14 13:31:07;;;;;;;4.90;1.35;;;;;;;;;;4957215;28;20031;-91
2023/08/14 13:33:37;;;;;;;5.55;1.60;;;;;;;;;;4954623;28;20455;-91
2023/08/14 13:36:03;;;;;;;2.90;1.70;;;;;;;;;;4946122;28;20038;-92
2023/08/14 13:38:31;;;;;;;2.45;1.83;;;;;;;;;;4949083;28;20678;-91
2023/08/14 13:40:58;;;;;;;4.15;1.85;;;;;;;;;;4934102;28;20047;-91
2023/08/14 13:43:25;;;;;;;2.30;1.42;;;;;;;;;;4945755;28;20504;-90
2023/08/14 13:45:51;;;;;;;3.28;1.48;;;;;;;;;;4962604;28;20038;-90
2023/08/14 13:48:18;;;;;;;6.20;1.77;;;;;;;;;;4947663;28;20034;-90
2023/08/14 13:50:58;;;;;;;13.68;1.90;;;;;;;;;;4970189;28;20058;-91
2023/08/14 13:53:24;;;;;;;5.35;1.80;;;;;;;;;;4949066;28;20038;-92
2023/08/14 13:55:50;;;;;;;5.97;1.80;;;;;;;;;;4946073;28;20061;-91
2023/08/14 13:58:16;;;;;;;3.22;1.70;;;;;;;;;;4949947;28;20227;-91
2023/08/14 14:00:42;;;;;;;7.70;2.03;;;;;;;;;;4962691;28;20030;-91
2023/08/14 14:03:09;;;;;;;5.50;1.90;;;;;;;;;;4948730;28;20038;-91
2023/08/14 14:05:35;;;;;;;6.95;1.85;;;;;;;;;;4947870;28;20031;-91
2023/08/14 14:08:02;;;;;;;6.10;1.98;;;;;;;;;;4929676;28;20047;-91
2023/08/14 14:10:28;;;;;;;6.20;1.55;;;;;;;;;;4942435;28;20027;-90
2023/08/14 14:12:54;;;;;;;5.03;1.88;;;;;;;;;;4928855;28;20541;-90
2023/08/14 14:15:21;;;;;;;4.53;1.90;;;;;;;;;;4964212;28;20031;-89
2023/08/14 14:17:47;;;;;;;3.50;1.63;;;;;;;;;;4958800;28;20763;-89
2023/08/14 14:20:13;;;;;;;8.30;1.75;;;;;;;;;;4955286;28;20058;-89
2023/08/14 14:22:39;;;;;;;2.47;1.75;;;;;;;;;;4946588;28;20458;-90
2023/08/14 14:25:05;;;;;;;4.43;1.70;;;;;;;;;;4928583;28;20634;-89
2023/08/14 14:27:31;;;;;;;8.18;2.10;;;;;;;;;;4930135;28;20086;-89
2023/08/14 14:29:57;;;;;;;4.32;1.70;;;;;;;;;;4944634;28;20257;-90
2023/08/14 14:32:23;;;;;;;6.15;1.77;;;;;;;;;;4930814;28;20043;-90
2023/08/14 14:34:49;;;;;;;6.53;1.90;;;;;;;;;;4934238;28;20039;-90
2023/08/14 14:37:15;;;;;;;5.80;1.90;;;;;;;;;;4943746;28;20458;-90
2023/08/14 14:39:41;;;;;;;4.78;1.70;;;;;;;;;;4947496;28;20105;-90
2023/08/14 14:42:11;;;;;;;5.13;1.85;;;;;;;;;;4944140;28;20047;-88
2023/08/14 14:44:37;;;;;;;6.97;2.10;;;;;;;;;;4933106;28;20550;-89
2023/08/14 14:47:03;;;;;;;1.35;1.20;;;;;;;;;;4945358;28;20450;-89
2023/08/14 14:49:29;;;;;;;4.85;1.58;;;;;;;;;;4933943;28;20538;-90
2023/08/14 14:51:55;;;;;;;4.97;1.98;;;;;;;;;;4953777;28;20427;-89
2023/08/14 14:54:22;;;;;;;5.13;1.90;;;;;;;;;;4954747;28;20129;-89
2023/08/14 14:56:48;;;;;;;3.08;1.40;;;;;;;;;;4939673;28;20094;-89
2023/08/14 14:59:14;;;;;;;6.57;2.17;;;;;;;;;;4943480;28;20135;-89